createdAt,value
2022-07-27T00:00:52.855Z,73.19
2022-07-27T00:03:19.649Z,73.75
2022-07-27T00:05:46.616Z,73.55
2022-07-27T00:08:13.292Z,76.27
2022-07-27T00:10:39.867Z,75.80
2022-07-27T00:13:07.020Z,74.62
2022-07-27T00:15:34.787Z,75.25
2022-07-27T00:18:01.524Z,76.74
2022-07-27T00:20:29.351Z,78.81
2022-07-27T00:22:56.608Z,80.58
2022-07-27T00:25:24.036Z,80.89
2022-07-27T00:27:50.911Z,82.02
2022-07-27T00:30:17.492Z,82.25
2022-07-27T00:32:44.229Z,82.18
2022-07-27T00:35:11.709Z,83.61
2022-07-27T00:37:38.571Z,84.36
2022-07-27T00:40:06.097Z,84.73
2022-07-27T00:42:32.768Z,85.57
2022-07-27T00:44:59.608Z,86.30
2022-07-27T00:47:26.415Z,86.53
2022-07-27T00:49:54.012Z,86.93
2022-07-27T00:52:23.144Z,88.03
2022-07-27T00:54:50.047Z,86.80
2022-07-27T00:57:16.720Z,86.15
2022-07-27T00:59:44.013Z,86.53
2022-07-27T01:02:12.140Z,85.26
2022-07-27T01:04:39.591Z,87.23
2022-07-27T01:07:07.082Z,87.13
2022-07-27T01:09:53.080Z,88.81
2022-07-27T01:12:21.394Z,92.95
2022-07-27T01:14:50.397Z,91.81
2022-07-27T01:17:17.479Z,94.31
2022-07-27T01:19:45.337Z,91.50
2022-07-27T01:22:12.477Z,92.25
2022-07-27T01:24:39.383Z,97.48
2022-07-27T01:27:07.134Z,99.94
2022-07-27T01:29:35.643Z,97.69
2022-07-27T01:32:03.548Z,94.25
2022-07-27T01:34:38.539Z,95.42
2022-07-27T01:37:05.428Z,95.70
2022-07-27T01:39:33.119Z,97.10
2022-07-27T01:42:00.773Z,95.74
2022-07-27T01:44:27.959Z,94.00
2022-07-27T01:46:55.007Z,93.96
2022-07-27T01:49:22.808Z,99.33
2022-07-27T01:51:49.491Z,100.00
2022-07-27T01:54:16.284Z,100.00
2022-07-27T01:56:46.928Z,100.00
2022-07-27T01:59:16.323Z,100.00
2022-07-27T02:01:44.794Z,100.00
2022-07-27T02:04:11.893Z,100.00
2022-07-27T02:06:38.581Z,100.00
2022-07-27T02:09:05.223Z,100.00
2022-07-27T02:11:50.554Z,100.00
2022-07-27T02:14:31.347Z,100.00
2022-07-27T02:16:57.926Z,100.00
2022-07-27T02:19:25.360Z,98.21
2022-07-27T02:21:58.207Z,100.00
2022-07-27T02:24:24.783Z,100.00
2022-07-27T02:26:51.396Z,100.00
2022-07-27T02:29:18.003Z,100.00
2022-07-27T02:31:44.679Z,100.00
2022-07-27T02:34:11.310Z,100.00
2022-07-27T02:36:38.148Z,100.00
2022-07-27T02:39:04.922Z,100.00
2022-07-27T02:41:31.506Z,100.00
2022-07-27T02:43:58.090Z,100.00
2022-07-27T02:46:24.690Z,100.00
2022-07-27T02:48:51.446Z,100.00
2022-07-27T02:51:19.050Z,100.00
2022-07-27T02:53:45.648Z,100.00
2022-07-27T02:56:13.348Z,100.00
2022-07-27T02:58:39.916Z,100.00
2022-07-27T03:01:06.962Z,100.00
2022-07-27T03:03:36.413Z,100.00
2022-07-27T03:06:06.045Z,100.00
2022-07-27T03:08:32.970Z,100.00
2022-07-27T03:10:59.869Z,100.00
2022-07-27T03:13:26.817Z,100.00
2022-07-27T03:15:53.583Z,100.00
2022-07-27T03:18:20.636Z,100.00
2022-07-27T03:20:47.538Z,100.00
2022-07-27T03:23:15.418Z,100.00
2022-07-27T03:25:42.125Z,100.00
2022-07-27T03:28:11.906Z,100.00
2022-07-27T03:30:38.676Z,100.00
2022-07-27T03:33:06.385Z,100.00
2022-07-27T03:35:33.150Z,100.00
2022-07-27T03:37:59.778Z,100.00
2022-07-27T03:40:29.424Z,100.00
2022-07-27T03:42:56.348Z,100.00
2022-07-27T03:45:23.055Z,100.00
2022-07-27T03:47:49.814Z,100.00
2022-07-27T03:50:16.448Z,100.00
2022-07-27T03:52:45.606Z,100.00
2022-07-27T03:55:12.614Z,100.00
2022-07-27T03:57:39.208Z,100.00
2022-07-27T04:00:07.107Z,100.00
2022-07-27T04:02:33.730Z,100.00
2022-07-27T04:05:00.439Z,100.00
2022-07-27T04:07:27.445Z,100.00
2022-07-27T04:09:54.025Z,100.00
2022-07-27T04:12:20.585Z,100.00
2022-07-27T04:14:48.157Z,100.00
2022-07-27T04:17:53.555Z,100.00
2022-07-27T04:20:01.446Z,100.00
2022-07-27T04:22:29.127Z,100.00
2022-07-27T04:24:55.869Z,100.00
2022-07-27T04:27:22.500Z,100.00
2022-07-27T04:29:49.085Z,100.00
2022-07-27T04:32:15.696Z,100.00
2022-07-27T04:34:42.303Z,100.00
2022-07-27T04:37:09.003Z,100.00
2022-07-27T04:39:35.566Z,100.00
2022-07-27T04:42:02.222Z,100.00
2022-07-27T04:44:28.804Z,100.00
2022-07-27T04:46:55.425Z,100.00
2022-07-27T04:49:22.162Z,100.00
2022-07-27T04:51:48.850Z,100.00
2022-07-27T04:54:15.498Z,100.00
2022-07-27T04:56:42.095Z,100.00
2022-07-27T04:59:08.905Z,100.00
2022-07-27T05:01:35.677Z,100.00
2022-07-27T05:04:04.150Z,100.00
2022-07-27T05:06:33.023Z,100.00
2022-07-27T05:08:59.756Z,100.00
2022-07-27T05:11:26.367Z,100.00
2022-07-27T05:13:52.931Z,96.77
2022-07-27T05:16:19.648Z,94.02
2022-07-27T05:18:47.437Z,89.06
2022-07-27T05:21:14.069Z,91.11
2022-07-27T05:23:40.660Z,88.06
2022-07-27T05:26:07.285Z,85.71
2022-07-27T05:28:33.964Z,80.61
2022-07-27T05:31:00.515Z,75.97
2022-07-27T05:33:27.155Z,73.35
2022-07-27T05:35:56.136Z,72.21
2022-07-27T05:38:22.954Z,73.71
2022-07-27T05:40:50.436Z,75.61
2022-07-27T05:43:17.031Z,74.37
2022-07-27T05:45:43.676Z,75.75
2022-07-27T05:48:10.524Z,70.21
2022-07-27T05:50:37.215Z,64.67
2022-07-27T05:53:04.090Z,62.90
2022-07-27T05:55:30.722Z,59.57
2022-07-27T05:57:57.358Z,58.48
2022-07-27T06:00:24.070Z,58.07
2022-07-27T06:02:50.672Z,55.76
2022-07-27T06:05:17.774Z,55.25
2022-07-27T06:07:59.584Z,53.78
2022-07-27T06:10:31.097Z,52.24
2022-07-27T06:12:57.906Z,53.68
2022-07-27T06:15:24.788Z,53.94
2022-07-27T06:17:53.967Z,53.46
2022-07-27T06:20:21.919Z,53.21
2022-07-27T06:22:51.253Z,55.40
2022-07-27T06:25:19.344Z,55.55
2022-07-27T06:27:46.762Z,52.20
2022-07-27T06:30:15.674Z,51.65
2022-07-27T06:32:42.463Z,49.24
2022-07-27T06:35:11.552Z,49.36
2022-07-27T06:37:44.147Z,48.49
2022-07-27T06:40:14.830Z,51.96
2022-07-27T06:42:42.122Z,53.05
2022-07-27T06:45:10.163Z,57.45
2022-07-27T06:47:49.814Z,58.59
2022-07-27T06:50:21.065Z,61.96
2022-07-27T06:52:48.767Z,61.83
2022-07-27T06:55:15.418Z,61.42
2022-07-27T06:57:43.091Z,62.70
2022-07-27T07:00:10.877Z,61.35
2022-07-27T07:02:37.575Z,61.51
2022-07-27T07:05:04.653Z,60.84
2022-07-27T07:07:31.797Z,59.65
2022-07-27T07:09:58.448Z,60.06
2022-07-27T07:12:25.802Z,60.58
2022-07-27T07:14:52.699Z,58.12
2022-07-27T07:17:19.821Z,59.58
2022-07-27T07:19:46.741Z,59.32
2022-07-27T07:22:13.523Z,59.96
2022-07-27T07:24:40.231Z,60.43
2022-07-27T07:27:06.912Z,59.34
2022-07-27T07:29:33.513Z,58.50
2022-07-27T07:32:00.192Z,58.35
2022-07-27T07:34:27.340Z,57.58
2022-07-27T07:36:53.909Z,56.96
2022-07-27T07:39:20.517Z,55.85
2022-07-27T07:41:47.437Z,54.80
2022-07-27T07:44:14.105Z,55.26
2022-07-27T07:46:45.312Z,54.85
2022-07-27T07:49:14.246Z,53.98
2022-07-27T07:51:41.141Z,53.46
2022-07-27T07:54:08.899Z,50.44
2022-07-27T07:56:35.472Z,48.88
2022-07-27T07:59:05.093Z,49.39
2022-07-27T08:01:31.820Z,48.49
2022-07-27T08:03:58.536Z,47.06
2022-07-27T08:06:25.400Z,47.40
2022-07-27T08:08:52.127Z,46.68
2022-07-27T08:11:18.755Z,46.09
2022-07-27T08:13:45.753Z,46.89
2022-07-27T08:16:12.473Z,47.40
2022-07-27T08:18:39.260Z,44.92
2022-07-27T08:21:05.851Z,44.12
2022-07-27T08:23:33.056Z,42.12
2022-07-27T08:26:04.140Z,43.04
2022-07-27T08:28:36.872Z,42.99
2022-07-27T08:31:12.142Z,43.79
2022-07-27T08:33:41.940Z,41.52
2022-07-27T08:36:08.716Z,42.03
2022-07-27T08:38:35.294Z,40.54
2022-07-27T08:41:03.975Z,40.66
2022-07-27T08:43:32.058Z,41.07
2022-07-27T08:46:01.014Z,40.26
2022-07-27T08:48:30.726Z,40.14
2022-07-27T08:50:57.719Z,38.94
2022-07-27T08:53:25.054Z,38.92
2022-07-27T08:55:52.018Z,39.45
2022-07-27T08:58:18.691Z,38.83
2022-07-27T09:00:48.574Z,38.76
2022-07-27T09:03:20.139Z,38.41
2022-07-27T09:05:54.991Z,38.30
2022-07-27T09:08:30.504Z,38.13
2022-07-27T09:10:59.786Z,40.14
2022-07-27T09:13:26.742Z,40.48
2022-07-27T09:18:46.228Z,41.77
2022-07-27T09:21:12.963Z,42.16
2022-07-27T09:23:41.594Z,42.97
2022-07-27T09:26:35.873Z,43.39
2022-07-27T09:29:07.145Z,43.03
2022-07-27T09:31:41.864Z,44.47
2022-07-27T09:34:09.790Z,40.94
2022-07-27T09:36:53.758Z,41.43
2022-07-27T09:39:22.631Z,42.50
2022-07-27T09:41:55.448Z,42.96
2022-07-27T09:44:43.251Z,42.43
2022-07-27T09:47:23.263Z,42.24
2022-07-27T09:49:50.073Z,42.80
2022-07-27T09:52:28.847Z,43.87
2022-07-27T09:55:02.783Z,44.25
2022-07-27T09:57:29.426Z,43.56
2022-07-27T10:00:13.774Z,44.47
2022-07-27T10:02:40.756Z,43.91
2022-07-27T10:05:07.823Z,44.24
2022-07-27T10:07:34.695Z,44.46
2022-07-27T10:10:02.993Z,44.30
2022-07-27T10:12:30.133Z,45.12
2022-07-27T10:14:56.735Z,44.76
2022-07-27T10:17:24.436Z,45.26
2022-07-27T10:19:51.302Z,43.93
2022-07-27T10:22:53.063Z,43.85
2022-07-27T10:25:20.843Z,44.43
2022-07-27T10:27:49.528Z,44.48
2022-07-27T10:30:23.927Z,43.85
2022-07-27T10:32:54.460Z,44.91
2022-07-27T10:35:35.539Z,44.05
2022-07-27T10:38:22.399Z,44.51
2022-07-27T10:41:40.204Z,43.52
2022-07-27T10:44:18.351Z,43.67
2022-07-27T10:46:51.355Z,43.36
2022-07-27T10:49:40.652Z,42.29
2022-07-27T10:52:42.282Z,41.48
2022-07-27T10:55:31.309Z,40.38
2022-07-27T10:58:03.695Z,40.35
2022-07-27T11:00:53.692Z,37.85
2022-07-27T11:03:32.999Z,39.31
2022-07-27T11:09:46.513Z,41.20
2022-07-27T11:11:49.404Z,41.47
2022-07-27T11:14:18.889Z,40.87
2022-07-27T11:16:56.039Z,41.29
2022-07-27T11:19:25.010Z,40.72
2022-07-27T11:21:53.966Z,41.13
2022-07-27T11:24:20.828Z,41.01
2022-07-27T11:26:51.943Z,40.25
2022-07-27T11:29:21.362Z,40.56
2022-07-27T11:31:56.318Z,41.01
2022-07-27T11:34:41.790Z,39.99
2022-07-27T11:37:20.137Z,39.58
2022-07-27T11:40:13.982Z,38.58
2022-07-27T11:42:38.429Z,38.51
2022-07-27T11:45:06.637Z,38.44
2022-07-27T11:47:34.272Z,38.97
2022-07-27T11:50:08.618Z,39.75
2022-07-27T11:52:35.424Z,38.86
2022-07-27T11:55:02.706Z,39.10
2022-07-27T11:57:33.349Z,39.40
2022-07-27T12:00:00.050Z,39.91
2022-07-27T12:02:27.403Z,40.69
2022-07-27T12:05:00.494Z,40.07
2022-07-27T12:07:31.770Z,39.80
2022-07-27T12:10:04.688Z,40.50
2022-07-27T12:12:33.541Z,39.56
2022-07-27T12:15:44.717Z,38.98
2022-07-27T12:18:01.908Z,39.95
2022-07-27T12:20:33.844Z,40.17
2022-07-27T12:23:05.678Z,40.99
2022-07-27T12:25:33.498Z,40.12
2022-07-27T12:28:01.903Z,41.85
2022-07-27T12:30:46.672Z,40.81
2022-07-27T12:33:37.429Z,39.99
2022-07-27T12:36:09.164Z,39.66
2022-07-27T12:38:44.564Z,39.87
2022-07-27T12:41:11.721Z,38.84
2022-07-27T12:43:38.503Z,37.46
2022-07-27T12:46:13.757Z,37.50
2022-07-27T12:48:42.514Z,37.27
2022-07-27T12:51:11.093Z,37.10
2022-07-27T12:53:38.850Z,38.07
2022-07-27T12:56:08.347Z,38.92
2022-07-27T12:58:36.152Z,37.08
2022-07-27T13:01:03.120Z,36.83
2022-07-27T13:03:29.875Z,36.50
2022-07-27T13:05:56.897Z,37.28
2022-07-27T13:08:23.691Z,36.62
2022-07-27T13:10:52.502Z,36.05
2022-07-27T13:13:24.341Z,35.75
2022-07-27T13:15:51.074Z,36.40
2022-07-27T13:18:23.151Z,36.13
2022-07-27T13:20:50.368Z,37.20
2022-07-27T13:23:17.052Z,36.58
2022-07-27T13:25:43.914Z,37.35
2022-07-27T13:28:11.430Z,37.07
2022-07-27T13:30:38.282Z,37.24
2022-07-27T13:33:05.071Z,37.82
2022-07-27T13:35:31.636Z,36.58
2022-07-27T13:37:58.365Z,37.09
2022-07-27T13:40:25.108Z,37.83
2022-07-27T13:42:51.664Z,38.10
2022-07-27T13:45:18.280Z,38.09
2022-07-27T13:47:44.915Z,38.80
2022-07-27T13:50:18.866Z,37.83
2022-07-27T13:52:48.097Z,38.45
2022-07-27T13:55:16.583Z,38.41
2022-07-27T13:57:43.343Z,38.19
2022-07-27T14:00:10.690Z,38.25
2022-07-27T14:02:37.380Z,37.95
2022-07-27T14:05:06.209Z,38.09
2022-07-27T14:07:33.665Z,37.50
2022-07-27T14:10:18.690Z,37.74
2022-07-27T14:12:45.399Z,37.75
2022-07-27T14:15:12.486Z,37.47
2022-07-27T14:17:39.117Z,37.28
2022-07-27T14:20:06.613Z,36.83
2022-07-27T14:22:33.295Z,36.72
2022-07-27T14:24:59.895Z,36.48
2022-07-27T14:27:26.697Z,36.43
2022-07-27T14:30:04.541Z,36.16
2022-07-27T14:32:31.164Z,35.76
2022-07-27T14:34:58.260Z,36.41
2022-07-27T14:37:24.851Z,37.00
2022-07-27T14:39:51.451Z,36.15
2022-07-27T14:42:21.920Z,36.22
2022-07-27T14:44:48.509Z,36.33
2022-07-27T14:47:15.107Z,36.70
2022-07-27T14:49:41.786Z,36.99
2022-07-27T14:52:13.402Z,37.72
2022-07-27T14:54:44.682Z,37.23
2022-07-27T14:57:11.638Z,37.26
2022-07-27T14:59:38.759Z,37.37
2022-07-27T15:02:05.876Z,37.10
2022-07-27T15:04:33.188Z,36.83
2022-07-27T15:07:00.032Z,36.53
2022-07-27T15:09:30.516Z,36.27
2022-07-27T15:11:59.282Z,35.94
2022-07-27T15:14:26.480Z,35.73
2022-07-27T15:16:55.020Z,35.79
2022-07-27T15:19:22.154Z,35.29
2022-07-27T15:21:48.823Z,35.27
2022-07-27T15:24:15.817Z,34.16
2022-07-27T15:26:45.403Z,34.06
2022-07-27T15:29:14.502Z,33.49
2022-07-27T15:31:44.763Z,33.74
2022-07-27T15:34:11.398Z,34.03
2022-07-27T15:36:44.723Z,33.90
2022-07-27T15:39:13.302Z,32.74
2022-07-27T15:41:40.171Z,33.19
2022-07-27T15:44:07.179Z,33.68
2022-07-27T15:46:35.080Z,34.10
2022-07-27T15:49:02.167Z,33.99
2022-07-27T15:51:29.545Z,32.71
2022-07-27T15:53:57.242Z,32.94
2022-07-27T15:56:25.218Z,33.26
2022-07-27T15:58:52.272Z,33.83
2022-07-27T16:01:20.953Z,34.71
2022-07-27T16:03:48.941Z,35.10
2022-07-27T16:06:16.205Z,34.25
2022-07-27T16:08:45.712Z,33.30
2022-07-27T16:11:12.795Z,32.50
2022-07-27T16:13:39.559Z,32.47
2022-07-27T16:16:24.930Z,32.44
2022-07-27T16:18:53.640Z,32.52
2022-07-27T16:21:23.517Z,32.29
2022-07-27T16:23:51.545Z,32.50
2022-07-27T16:26:18.258Z,32.20
2022-07-27T16:28:46.804Z,32.49
2022-07-27T16:31:18.556Z,32.85
2022-07-27T16:33:46.157Z,32.00
2022-07-27T16:36:13.253Z,32.75
2022-07-27T16:38:49.520Z,34.08
2022-07-27T16:41:17.465Z,33.66
2022-07-27T16:43:44.034Z,33.86
2022-07-27T16:46:11.004Z,34.67
2022-07-27T16:48:41.915Z,34.31
2022-07-27T16:51:11.036Z,35.02
2022-07-27T16:53:39.881Z,34.13
2022-07-27T16:56:07.052Z,34.45
2022-07-27T16:58:34.322Z,34.60
2022-07-27T17:01:01.723Z,35.57
2022-07-27T17:03:28.361Z,35.48
2022-07-27T17:05:55.099Z,35.50
2022-07-27T17:08:27.828Z,36.42
2022-07-27T17:10:55.645Z,36.49
2022-07-27T17:13:22.804Z,36.71
2022-07-27T17:16:00.962Z,36.43
2022-07-27T17:18:27.968Z,36.88
2022-07-27T17:20:54.613Z,37.45
2022-07-27T17:23:21.213Z,37.23
2022-07-27T17:25:48.802Z,36.76
2022-07-27T17:28:15.416Z,37.79
2022-07-27T17:30:42.043Z,38.17
2022-07-27T17:33:08.676Z,38.55
2022-07-27T17:35:35.418Z,37.96
2022-07-27T17:38:06.958Z,38.24
2022-07-27T17:40:34.739Z,38.14
2022-07-27T17:43:01.612Z,38.09
2022-07-27T17:45:28.287Z,37.94
2022-07-27T17:47:55.006Z,38.01
2022-07-27T17:50:21.696Z,38.14
2022-07-27T17:52:49.467Z,38.19
2022-07-27T17:55:16.073Z,38.45
2022-07-27T17:57:45.332Z,38.63
2022-07-27T18:00:12.805Z,39.14
2022-07-27T18:02:39.510Z,39.07
2022-07-27T18:05:06.553Z,39.00
2022-07-27T18:07:39.284Z,39.04
2022-07-27T18:10:08.450Z,39.36
2022-07-27T18:12:35.726Z,39.70
2022-07-27T18:15:29.454Z,40.01
2022-07-27T18:18:00.615Z,40.00
2022-07-27T18:20:27.278Z,39.62
2022-07-27T18:22:53.913Z,39.72
2022-07-27T18:25:21.930Z,39.80
2022-07-27T18:27:50.188Z,39.98
2022-07-27T18:30:18.699Z,39.92
2022-07-27T18:32:45.604Z,40.08
2022-07-27T18:35:13.235Z,39.95
2022-07-27T18:37:39.995Z,40.13
2022-07-27T18:40:09.790Z,40.79
2022-07-27T18:42:37.837Z,40.26
2022-07-27T18:45:07.213Z,40.82
2022-07-27T18:47:35.276Z,40.78
2022-07-27T18:50:54.942Z,40.71
2022-07-27T18:53:21.749Z,40.62
2022-07-27T18:55:52.720Z,40.81
2022-07-27T18:58:22.406Z,40.97
2022-07-27T19:00:49.121Z,41.01
2022-07-27T19:03:16.794Z,41.65
2022-07-27T19:05:45.985Z,41.14
2022-07-27T19:08:15.005Z,41.52
2022-07-27T19:10:43.160Z,41.66
2022-07-27T19:13:12.436Z,41.97
2022-07-27T19:15:40.642Z,42.35
2022-07-27T19:18:08.453Z,42.21
2022-07-27T19:20:38.280Z,42.16
2022-07-27T19:23:06.004Z,42.43
2022-07-27T19:25:33.849Z,42.40
2022-07-27T19:28:01.128Z,42.46
2022-07-27T19:30:33.723Z,43.18
2022-07-27T19:33:00.790Z,42.91
2022-07-27T19:35:27.562Z,42.97
2022-07-27T19:37:54.155Z,43.77
2022-07-27T19:43:07.845Z,42.72
2022-07-27T19:45:35.396Z,43.19
2022-07-27T19:48:05.603Z,42.98
2022-07-27T19:50:32.895Z,43.17
2022-07-27T19:53:04.409Z,44.00
2022-07-27T19:55:31.095Z,44.23
2022-07-27T19:57:57.750Z,44.34
2022-07-27T20:00:26.463Z,44.42
2022-07-27T20:02:53.117Z,44.33
2022-07-27T20:05:29.817Z,43.87
2022-07-27T20:07:56.486Z,44.07
2022-07-27T20:10:30.560Z,44.65
2022-07-27T20:12:57.175Z,44.13
2022-07-27T20:15:32.051Z,44.69
2022-07-27T20:17:59.907Z,44.93
2022-07-27T20:20:28.827Z,44.94
2022-07-27T20:22:55.763Z,44.97
2022-07-27T20:25:23.221Z,44.85
2022-07-27T20:27:50.783Z,44.80
2022-07-27T20:30:20.127Z,44.75
2022-07-27T20:32:49.185Z,45.22
2022-07-27T20:35:17.804Z,45.01
2022-07-27T20:37:51.291Z,45.22
2022-07-27T20:40:19.405Z,45.33
2022-07-27T20:42:46.028Z,45.53
2022-07-27T20:45:14.973Z,46.13
2022-07-27T20:47:42.950Z,45.65
2022-07-27T20:50:11.603Z,45.97
2022-07-27T20:52:39.315Z,45.83
2022-07-27T20:55:14.238Z,46.79
2022-07-27T20:57:40.844Z,46.33
2022-07-27T21:00:28.788Z,47.36
2022-07-27T21:02:57.915Z,47.58
2022-07-27T21:05:27.210Z,47.86
2022-07-27T21:07:56.116Z,47.91
2022-07-27T21:10:24.094Z,48.27
2022-07-27T21:12:50.910Z,48.58
2022-07-27T21:15:23.402Z,49.11
2022-07-27T21:18:00.572Z,49.59
2022-07-27T21:20:27.651Z,49.93
2022-07-27T21:23:12.676Z,49.57
2022-07-27T21:25:45.486Z,50.72
2022-07-27T21:28:15.825Z,50.67
2022-07-27T21:30:55.273Z,51.84
2022-07-27T21:33:21.925Z,51.62
2022-07-27T21:35:48.632Z,52.29
2022-07-27T21:38:15.226Z,51.97
2022-07-27T21:40:49.115Z,54.29
2022-07-27T21:43:15.710Z,54.21
2022-07-27T21:45:47.882Z,54.92
2022-07-27T21:48:17.144Z,54.99
2022-07-27T21:50:43.822Z,55.20
2022-07-27T21:53:10.563Z,56.65
2022-07-27T21:55:39.122Z,58.61
2022-07-27T21:58:05.754Z,60.16
2022-07-27T22:00:32.355Z,58.99
2022-07-27T22:03:00.939Z,61.01
2022-07-27T22:05:27.951Z,61.24
2022-07-27T22:07:54.555Z,61.37
2022-07-27T22:10:29.188Z,63.01
2022-07-27T22:12:58.397Z,62.62
2022-07-27T22:15:25.980Z,62.78
2022-07-27T22:17:54.573Z,64.16
2022-07-27T22:20:22.088Z,62.09
2022-07-27T22:22:49.872Z,61.29
2022-07-27T22:25:16.781Z,62.93
2022-07-27T22:27:43.459Z,64.00
2022-07-27T22:30:10.360Z,65.01
2022-07-27T22:32:37.023Z,65.50
2022-07-27T22:35:04.453Z,65.29
2022-07-27T22:37:31.155Z,67.14
2022-07-27T22:39:57.776Z,67.66
2022-07-27T22:42:24.353Z,69.30
2022-07-27T22:44:50.909Z,68.77
2022-07-27T22:47:17.690Z,68.04
2022-07-27T22:49:45.171Z,68.54
2022-07-27T22:52:12.395Z,67.50
2022-07-27T22:54:42.018Z,69.77
2022-07-27T22:57:08.958Z,70.39
2022-07-27T22:59:37.491Z,73.25
2022-07-27T23:02:05.482Z,72.26
2022-07-27T23:04:32.294Z,72.21
2022-07-27T23:06:59.145Z,73.46
2022-07-27T23:09:25.756Z,75.09
2022-07-27T23:11:52.954Z,76.43
2022-07-27T23:14:19.738Z,73.94
2022-07-27T23:16:46.436Z,77.36
2022-07-27T23:19:13.170Z,75.52
2022-07-27T23:21:41.937Z,77.86
2022-07-27T23:24:10.233Z,77.88
2022-07-27T23:26:38.027Z,78.52
2022-07-27T23:29:04.582Z,77.85
2022-07-27T23:31:31.309Z,78.06
2022-07-27T23:33:58.066Z,79.37
2022-07-27T23:36:24.649Z,81.81
2022-07-27T23:38:51.322Z,79.91
2022-07-27T23:41:18.050Z,80.15
2022-07-27T23:43:45.015Z,81.20
2022-07-27T23:46:11.786Z,80.85
2022-07-27T23:48:38.436Z,79.21
2022-07-27T23:51:05.361Z,80.25
2022-07-27T23:53:32.011Z,79.69
2022-07-27T23:55:58.720Z,80.88
2022-07-27T23:58:25.438Z,81.61
